Paoli, Oklahoma
Current Conditions -  °F | °C
As of 1:55 AM on Friday 31 Oct 2014 (Local Time) from KPVJ Reporting Station
Clear Clear  
Wind Chill: 52°   Ceiling: Unl
Heat Index: 52°   Visibility: 10mi
Dew Point: 39°   Wind: 6mph
Humidity: 61%   Direction: 320°NW
Pressure: 30.22"   Gusts: NA
Location:  34.83°N, 97.26°W
Report Text: KPVJ 310655Z AUTO 32005KT 10SM CLR 11/04 A3022 RMK AO2 T01090037
Loading
Personal Weather Stations






























Interactive Weather Map
Tropical Storm Tracking
New forecast layout! Learn more

10-Day Weather Forecast

Advertisements
Track Severe Weather on mobile